Flight Track Log - Related Links

Times and Time Zones

All times are in EDT time to prevent confusion due to time zone crossing. See the SKW4473 flight status page for this flight to view local times or setup timezone preferences in your user account.

Time Position Orientation Groundspeed Altitude Reporting Facility
EDT Latitude Longitude Course Direction KTS MPH feet Rate Location/Type
Mon 01:17:18 PM 40.8014 -111.9642 37° Northeast 135 155 4,800  Level Salt Lake Center
Mon 01:17:48 PM 40.8258 -111.9672 355° North 175 201 5,800 1,500 Climbing Salt Lake Center
Mon 01:18:06 PM 40.8358 -111.9678 358° North 156 180 6,000 2,430 Climbing Salt Lake Center
Mon 01:19:07 PM 40.8947 -111.9761 354° North 208 239 9,000 2,634 Climbing Salt Lake Center
Mon 01:20:00 PM 41.1785 -111.8602 43° Northeast  Level FlightAware Approximate
Mon 01:20:09 PM 40.9628 -111.9633 North 257 296 11,400  Level Salt Lake Center
Mon 01:21:00 PM 41.2689 -111.7822 21° North  Level FlightAware Approximate
Mon 01:21:10 PM 41.0431 -111.9139 25° Northeast 312 359 13,700  Level Salt Lake Center
Mon 01:22:00 PM 41.3623 -111.7044 37° Northeast  Level FlightAware Approximate
Mon 01:22:12 PM 41.1275 -111.8636 24° Northeast 320 368 16,800  Level Salt Lake Center
Mon 01:23:13 PM 41.2131 -111.8128 24° Northeast 335 386 18,600 1,721 Climbing Salt Lake Center
Mon 01:24:14 PM 41.3000 -111.7611 24° Northeast 341 392 20,300 1,951 Climbing Salt Lake Center
Mon 01:25:16 PM 41.3903 -111.7086 24° Northeast 352 405 22,600 1,854 Climbing Salt Lake Center
Mon 01:26:17 PM 41.4800 -111.6728 17° North 339 390 24,100 1,463 Climbing Salt Lake Center
Mon 01:27:19 PM 41.5919 -111.6278 17° North 351 404 25,600 1,220 Climbing Salt Lake Center
Mon 01:28:20 PM 41.6872 -111.5914 16° North 357 411 26,600 1,024 Climbing Salt Lake Center
Mon 01:29:22 PM 41.7839 -111.5525 17° North 363 418 27,700 1,024 Climbing Salt Lake Center
Mon 01:30:23 PM 41.8817 -111.5297 10° North 356 410 28,700 1,033 Climbing Salt Lake Center
Mon 01:31:24 PM 41.9808 -111.5061 10° North 360 414 29,800 634 Climbing Salt Lake Center
Mon 01:32:26 PM 42.0811 -111.4839 North 366 421 30,000 98 Climbing Salt Lake Center
Mon 01:33:27 PM 42.1853 -111.4597 10° North 377 434 30,000  Level Salt Lake Center
Mon 01:34:29 PM 42.2892 -111.4381 North 378 435 30,000  Level Salt Lake Center
Mon 01:35:30 PM 42.4053 -111.4569 353° North 354 407 30,000  Level Salt Lake Center
Mon 01:36:32 PM 42.5031 -111.4758 352° North 355 409 30,000  Level Salt Lake Center
Mon 01:37:33 PM 42.6053 -111.4956 352° North 369 425 30,000  Level Salt Lake Center
Mon 01:38:35 PM 42.7092 -111.5156 352° North 375 432 30,000  Level Salt Lake Center
Mon 01:39:36 PM 42.8194 -111.5358 352° North 383 441 30,000  Level Salt Lake Center
Mon 01:40:38 PM 42.9192 -111.5550 352° North 378 435 30,000  Level Salt Lake Center
Mon 01:41:40 PM 43.0317 -111.5775 352° North 367 422 30,000  Level Salt Lake Center
Mon 01:42:41 PM 43.1278 -111.5975 351° North 364 419 30,000  Level Salt Lake Center
Mon 01:43:43 PM 43.2400 -111.6189 352° North 364 419 30,000  Level Salt Lake Center
Mon 01:44:44 PM 43.3386 -111.6389 352° North 373 429 30,000  Level Salt Lake Center
Mon 01:45:46 PM 43.4386 -111.6581 352° North 378 435 30,000  Level Salt Lake Center
Mon 01:46:48 PM 43.5572 -111.6825 352° North 383 441 30,000  Level Salt Lake Center
Mon 01:47:49 PM 43.6603 -111.7042 351° North 389 448 30,000  Level Salt Lake Center
Mon 01:48:51 PM 43.7794 -111.7264 352° North 386 444 30,000  Level Salt Lake Center
Mon 01:49:53 PM 43.8775 -111.7472 351° North 376 433 30,000  Level Salt Lake Center
Mon 01:50:55 PM 43.9925 -111.7711 352° North 372 428 30,000  Level Salt Lake Center
Mon 01:51:56 PM 44.0922 -111.7919 351° North 375 432 30,000  Level Salt Lake Center
Mon 01:52:58 PM 44.1922 -111.8131 351° North 377 434 30,000  Level Salt Lake Center
Mon 01:54:00 PM 44.3089 -111.8369 352° North 379 436 30,000  Level Salt Lake Center
Mon 01:55:01 PM 44.4111 -111.8581 352° North 383 441 30,000  Level Salt Lake Center
Mon 01:56:03 PM 44.5311 -111.8822 352° North 386 444 30,000  Level Salt Lake Center
Mon 01:57:05 PM 44.6350 -111.9067 350° North 390 449 30,000  Level Salt Lake Center
Mon 01:58:07 PM 44.7378 -111.9267 352° North 389 448 30,000  Level Salt Lake Center
Mon 01:59:08 PM 44.8575 -111.9525 351° North 389 448 30,000  Level Salt Lake Center
Mon 02:00:10 PM 44.9597 -111.9731 352° North 386 444 30,000  Level Salt Lake Center
Mon 02:01:12 PM 45.0794 -111.9983 352° North 388 447 30,000  Level Salt Lake Center
Mon 02:02:14 PM 45.1692 -112.0186 351° North 387 445 30,000  Level Salt Lake Center
Mon 02:03:16 PM 45.2956 -112.0472 351° North 383 441 30,000  Level Salt Lake Center
Mon 02:04:17 PM 45.4022 -112.0689 352° North 384 442 30,000 -146 Level Salt Lake Center
Mon 02:05:19 PM 45.5083 -112.0928 351° North 384 442 29,700 -871 Descending Salt Lake Center
Mon 02:06:21 PM 45.6078 -112.1133 352° North 367 422 28,200 -1,645 Descending Salt Lake Center
Mon 02:07:23 PM 45.7036 -112.1350 351° North 350 403 26,300 -1,790 Descending Salt Lake Center
Mon 02:08:25 PM 45.7950 -112.1556 351° North 334 384 24,500 -1,694 Descending Salt Lake Center
Mon 02:09:27 PM 45.8831 -112.1628 357° North 318 366 22,800 -1,548 Descending Salt Lake Center
Mon 02:10:29 PM 45.9681 -112.1392 11° North 311 358 21,300 -1,645 Descending Salt Lake Center
Mon 02:11:31 PM 46.0725 -112.1103 11° North 314 361 19,400 -1,756 Descending Salt Lake Center
Mon 02:12:32 PM 46.1544 -112.0861 12° North 304 350 17,700 -1,756 Descending Salt Lake Center
Mon 02:13:34 PM 46.2325 -112.0639 11° North 289 333 15,800 -2,129 Descending Salt Lake Center
Mon 02:14:36 PM 46.2736 -111.9736 57° Northeast 301 346 13,300 -2,177 Descending Salt Lake Center
Mon 02:15:38 PM 46.2808 -111.8542 85° East 295 339 11,300 -1,113 Descending Salt Lake Center
Mon 02:16:40 PM 46.3047 -111.7522 71° East 279 321 11,000 -97 Descending Salt Lake Center
Mon 02:17:42 PM 46.3422 -111.6619 59° Northeast 268 308 11,100 48 Climbing Salt Lake Center
Mon 02:18:44 PM 46.3925 -111.5850 47° Northeast 263 303 11,100 -49 Level Salt Lake Center
Mon 02:19:45 PM 46.4511 -111.5275 34° Northeast 259 298 11,000 -488 Descending Salt Lake Center
Mon 02:20:47 PM 46.5244 -111.5272 360° North 255 293 10,100 -871 Descending Salt Lake Center

Login

Don't have an account? Register now (free) for customized features, flight alerts, and more!